Latest Coastal Weather Observations for Hogan Island

IDV60701

Issued at 10:51 pm EST Friday 28 August 2015 (issued every 10 minutes, with the page automatically refreshed every 10 minutes)

About coastal observations | Map of coastal stations | Coastal observations for VIC | Marine services | Other Formats
Station Details ID: 200838 Name: HOGAN ISLAND Lat: -39.22 Lon: 146.98 Height: 116.0 m
Data from the previous 72 hours. | See also: Recent months at Hogan Island
Date/Time
EST
Temp

°C
Wind Pressure Rain
since 9am
mm
Weather Cloud Vis
km
Sea
Height
m
Swell
Dir
 
Speed
knots
Gust
knots
hPa Trend Height
m
Period
s
Dir
28/10:30pm 7.7 WSW 15 18 1023.8 - 0.0 - - - - - - -
28/10:00pm 7.9 SW 14 17 1024.0 - 0.0 - - - - - - -
28/09:30pm 8.0 SSW 12 17 1024.2 - 0.0 - - - - - - -
28/09:00pm 7.9 SW 12 18 1024.3 - 0.0 - - - - - - -
28/08:30pm 7.7 SSW 13 17 1024.2 - 0.0 - - - - - - -
28/08:00pm 7.8 SW 12 17 1024.1 - 0.0 - - - - - - -
28/07:30pm 7.7 SSW 12 15 1023.9 - 0.0 - - - - - - -
28/07:00pm 7.1 S 11 15 1023.9 - 0.0 - - - - - - -
28/06:30pm 7.5 SSW 12 15 1023.7 - 0.0 - - - - - - -
28/06:00pm 7.5 SSW 11 14 1023.5 - 0.0 - - - - - - -
28/05:30pm 7.7 S 13 15 1023.2 - 0.0 - - - - - - -
28/05:00pm 8.1 S 7 9 1023.2 - 0.0 - - - - - - -
28/04:30pm 7.9 S 13 16 1023.2 - 0.0 - - - - - - -
28/04:00pm 8.7 S 16 19 1023.1 - 0.0 - - - - - - -
28/03:30pm 9.3 S 18 20 1023.0 - 0.0 - - - - - - -
28/03:00pm 9.4 S 17 21 1023.0 - 0.0 - - - - - - -
28/02:30pm 11.7 SE 10 13 1022.8 - 0.0 - - - - - - -
28/02:00pm 10.7 SE 12 15 1022.6 - 0.0 - - - - - - -
28/01:30pm 10.1 SE 13 16 1022.6 - 0.0 - - - - - - -
28/01:00pm 12.0 ESE 11 13 1022.8 - 0.0 - - - - - - -
28/12:30pm 11.9 SE 11 13 1023.1 - 0.0 - - - - - - -
28/12:00pm 12.2 ESE 11 13 1023.5 - 0.0 - - - - - - -
28/11:30am 10.8 E 12 13 1023.5 - 0.0 - - - - - - -
28/11:00am 12.6 S 11 13 1023.4 - 0.0 - - - - - - -
28/10:30am 11.1 S 10 12 1023.4 - 0.0 - - - - - - -
28/10:00am 10.8 SW 6 9 1023.2 - 0.0 - - - - - - -
28/09:30am 10.6 WSW 4 5 1023.2 - 0.0 - - - - - - -
28/09:00am 10.1 S 3 4 1023.2 - 3.0 - - - - - - -
28/08:30am 9.2 ESE 4 5 1022.8 - 3.0 - - - - - - -
28/08:00am 8.6 SE 8 10 1022.9 - 3.0 - - - - - - -
28/07:30am 8.4 ESE 7 7 1022.5 - 1.8 - - - - - - -
28/07:00am 8.6 SE 14 18 1022.2 - 1.8 - - - - - - -
28/06:30am 9.1 SE 14 16 1021.9 - 1.6 - - - - - - -
28/06:00am 8.6 SE 16 18 1021.6 - 1.6 - - - - - - -
28/05:30am 9.2 SSE 15 19 1021.3 - 0.0 - - - - - - -
28/05:00am 9.6 SE 14 16 1020.9 - 0.0 - - - - - - -
28/04:30am 9.8 SSE 14 18 1020.7 - 0.0 - - - - - - -
28/04:00am 9.7 SE 11 14 1020.5 - 0.0 - - - - - - -
28/03:30am 9.7 SSE 12 15 1020.2 - 0.0 - - - - - - -
28/03:00am 10.1 SSE 11 13 1020.3 - 0.0 - - - - - - -
28/02:30am 10.1 SSE 11 13 1020.4 - 0.0 - - - - - - -
28/02:00am 10.0 S 11 14 1020.6 - 0.0 - - - - - - -
28/01:30am 10.1 S 11 13 1020.6 - 0.0 - - - - - - -
28/01:00am 10.1 SSW 9 15 1020.5 - 0.0 - - - - - - -
28/12:30am 9.7 SSW 6 9 1020.5 - 0.0 - - - - - - -
28/12:00am 9.6 SSW 10 14 1020.6 - 0.0 - - - - - - -
 
Date/Time
EST
Temp

°C
Wind Pressure Rain
since 9am
mm
Weather Cloud Vis
km
Sea
Height
m
Swell
Dir
 
Speed
knots
Gust
knots
hPa Trend Height
m
Period
s
Dir
27/11:30pm 10.1 S 13 16 1020.6 - 0.0 - - - - - - -
27/11:00pm 10.3 SW 13 16 1020.6 - 0.0 - - - - - - -
27/10:30pm 10.3 SSW 13 18 1020.6 - 0.0 - - - - - - -
27/10:00pm 10.7 SSW 11 18 1020.7 - 0.0 - - - - - - -
27/09:30pm 10.7 SSW 13 20 1020.6 - 0.0 - - - - - - -
27/09:00pm 10.7 SSW 12 19 1020.6 - 0.0 - - - - - - -
27/08:30pm 10.6 SSW 13 18 1020.4 - 0.0 - - - - - - -
27/08:00pm 10.3 SSW 12 17 1020.1 - 0.0 - - - - - - -
27/07:30pm 10.3 SSW 15 18 1019.9 - 0.0 - - - - - - -
27/07:00pm 10.2 S 14 18 1019.7 - 0.0 - - - - - - -
27/06:30pm 10.2 S 15 18 1019.4 - 0.0 - - - - - - -
27/06:00pm 10.5 S 17 20 1019.4 - 0.0 - - - - - - -
27/05:30pm 10.7 S 17 19 1019.0 - 0.0 - - - - - - -
27/05:00pm 10.9 S 16 19 1018.7 - 0.0 - - - - - - -
27/04:30pm 11.0 SSE 16 19 1018.5 - 0.0 - - - - - - -
27/04:00pm 11.3 SSE 14 17 1018.3 - 0.0 - - - - - - -
27/03:30pm 11.6 SSE 14 17 1018.2 - 0.0 - - - - - - -
27/03:00pm 11.6 SSE 16 21 1018.3 - 0.0 - - - - - - -
27/02:30pm 11.7 SSE 17 19 1018.1 - 0.0 - - - - - - -
27/02:00pm 11.7 SSE 18 21 1018.2 - 0.0 - - - - - - -
27/01:30pm 11.9 SSE 17 20 1018.5 - 0.0 - - - - - - -
27/01:00pm 12.6 SSE 17 19 1018.7 - 0.0 - - - - - - -
27/12:30pm 12.5 SE 15 19 1018.8 - 0.0 - - - - - - -
27/12:00pm 12.3 SE 17 21 1019.3 - 0.0 - - - - - - -
27/11:30am 12.5 SE 16 18 1019.6 - 0.0 - - - - - - -
27/11:00am 12.7 SE 15 18 1020.1 - 0.0 - - - - - - -
27/10:30am 13.0 SE 14 16 1020.4 - 0.0 - - - - - - -
27/10:00am 12.4 SE 12 14 1020.5 - 0.0 - - - - - - -
27/09:30am 11.8 SE 12 14 1021.0 - 0.0 - - - - - - -
27/09:00am 12.7 SE 12 13 1021.2 - 1.0 - - - - - - -
27/08:30am 12.5 SE 12 14 1021.3 - 1.0 - - - - - - -
27/08:00am 12.4 ESE 14 16 1021.1 - 1.0 - - - - - - -
27/07:30am 11.7 E 15 16 1020.7 - 1.0 - - - - - - -
27/07:00am 11.1 E 15 16 1020.5 - 1.0 - - - - - - -
27/06:30am 11.0 E 14 15 1020.5 - 1.0 - - - - - - -
27/06:00am 10.6 E 13 15 1020.6 - 1.0 - - - - - - -
27/05:30am 11.0 E 13 14 1020.6 - 1.0 - - - - - - -
27/05:00am 11.1 E 12 13 1020.6 - 1.0 - - - - - - -
27/04:30am 10.9 E 13 16 1020.7 - 1.0 - - - - - - -
27/04:00am 11.1 E 13 15 1021.0 - 1.0 - - - - - - -
27/03:30am 11.1 E 15 18 1021.2 - 1.0 - - - - - - -
27/03:00am 10.9 E 14 16 1021.5 - 1.0 - - - - - - -
27/02:30am 11.0 E 16 18 1021.8 - 1.0 - - - - - - -
27/02:00am 11.0 E 14 15 1022.2 - 1.0 - - - - - - -
27/01:30am 11.0 E 15 17 1022.6 - 1.0 - - - - - - -
27/01:00am 11.0 E 15 19 1022.9 - 1.0 - - - - - - -
27/12:30am 10.8 E 13 15 1023.3 - 1.0 - - - - - - -
27/12:00am 10.9 E 14 17 1023.6 - 0.8 - - - - - - -
 
Date/Time
EST
Temp

°C
Wind Pressure Rain
since 9am
mm
Weather Cloud Vis
km
Sea
Height
m
Swell
Dir
 
Speed
knots
Gust
knots
hPa Trend Height
m
Period
s
Dir
26/11:30pm 11.0 ENE 15 17 1023.9 - 0.6 - - - - - - -
26/11:00pm 10.9 E 13 15 1024.2 - 0.4 - - - - - - -
26/10:30pm 11.0 ENE 13 15 1024.6 - 0.0 - - - - - - -
26/10:00pm 11.2 ENE 15 18 1024.8 - 0.0 - - - - - - -
26/09:30pm 11.4 E 17 19 1024.8 - 0.0 - - - - - - -
26/09:00pm 11.5 E 17 21 1025.0 - 0.0 - - - - - - -
26/08:30pm 11.5 E 18 22 1024.8 - 0.0 - - - - - - -
26/08:00pm 11.5 E 18 22 1024.9 - 0.0 - - - - - - -
26/07:30pm 11.3 E 18 23 1024.8 - 0.0 - - - - - - -
26/07:00pm 11.2 E 19 22 1024.8 - 0.0 - - - - - - -
26/06:30pm 11.2 E 21 24 1024.7 - 0.0 - - - - - - -
26/06:00pm 11.2 E 20 24 1025.0 - 0.0 - - - - - - -
26/05:30pm 11.2 E 19 25 1024.8 - 0.0 - - - - - - -
26/05:00pm 11.0 E 18 21 1024.9 - 0.0 - - - - - - -
26/04:30pm 11.3 E 19 22 1024.8 - 0.0 - - - - - - -
26/04:00pm 11.9 E 19 22 1025.0 - 0.0 - - - - - - -
26/03:30pm 12.6 E 19 23 1024.9 - 0.0 - - - - - - -
26/03:00pm 12.6 E 21 24 1025.1 - 0.0 - - - - - - -
26/02:30pm 13.0 E 21 25 1025.2 - 0.0 - - - - - - -
26/02:00pm 13.0 E 21 25 1025.6 - 0.0 - - - - - - -
26/01:30pm 13.4 E 21 24 1025.9 - 0.0 - - - - - - -
26/01:00pm 13.5 E 18 20 1026.3 - 0.0 - - - - - - -
26/12:30pm 13.3 ESE 15 18 1026.9 - 0.0 - - - - - - -
26/12:00pm 12.9 ESE 16 18 1027.6 - 0.0 - - - - - - -
26/11:30am 12.8 E 15 17 1028.0 - 0.0 - - - - - - -
26/11:00am 12.0 E 20 23 1028.2 - 0.0 - - - - - - -
26/10:30am 12.0 E 21 25 1028.3 - 0.0 - - - - - - -
26/10:00am 12.1 E 18 21 1028.5 - 0.0 - - - - - - -
26/09:30am 11.7 E 17 20 1028.6 - 0.0 - - - - - - -
26/09:00am 12.2 ENE 16 28 1028.6 - 0.0 - - - - - - -
26/08:30am 11.5 E 23 27 1028.2 - 0.0 - - - - - - -
26/08:00am 11.1 E 20 23 1028.4 - 0.0 - - - - - - -
26/07:30am 10.9 E 19 23 1028.2 - 0.0 - - - - - - -
26/07:00am 10.6 E 16 18 1028.1 - 0.0 - - - - - - -
26/06:30am 10.7 E 17 19 1028.0 - 0.0 - - - - - - -
26/06:00am 10.5 E 17 20 1028.0 - 0.0 - - - - - - -
26/05:30am 10.3 E 17 18 1027.8 - 0.0 - - - - - - -
26/05:00am 10.6 E 17 19 1027.8 - 0.0 - - - - - - -
26/04:30am 9.8 E 15 19 1028.0 - 0.0 - - - - - - -
26/04:00am 9.5 ESE 19 23 1027.8 - 0.0 - - - - - - -
26/03:30am 9.7 ESE 21 24 1027.7 - 0.0 - - - - - - -
26/03:00am 9.5 ESE 19 22 1028.1 - 0.0 - - - - - - -
26/02:30am 9.8 ESE 17 20 1028.3 - 0.0 - - - - - - -
26/02:00am 10.1 ESE 18 21 1028.6 - 0.0 - - - - - - -
26/01:30am 10.1 ESE 18 20 1028.7 - 0.0 - - - - - - -
26/01:00am 9.9 ESE 19 22 1029.0 - 0.0 - - - - - - -
26/12:30am 9.4 ESE 20 23 1029.1 - 0.0 - - - - - - -
26/12:00am 9.4 ESE 20 23 1029.2 - 0.0 - - - - - - -
 
Date/Time
EST
Temp

°C
Wind Pressure Rain
since 9am
mm
Weather Cloud Vis
km
Sea
Height
m
Swell
Dir
 
Speed
knots
Gust
knots
hPa Trend Height
m
Period
s
Dir
25/11:30pm 9.5 ESE 20 24 1029.2 - 0.0 - - - - - - -
25/11:00pm 9.7 E 20 24 1029.2 - 0.0 - - - - - - -

Other Formats:

Comma delimited format used in spreadsheet applications
http://www.bom.gov.au/fwo/IDV60701/IDV60701.94949.axf

JavaScript Object Notation format (JSON) in row-major order
http://www.bom.gov.au/fwo/IDV60701/IDV60701.94949.json